createdAt,value
2019-01-24T00:00:28.807Z,-4.20
2019-01-24T00:02:59.589Z,-4.30
2019-01-24T00:05:30.400Z,-4.30
2019-01-24T00:08:00.951Z,-4.30
2019-01-24T00:10:31.461Z,-4.30
2019-01-24T00:13:02.012Z,-4.20
2019-01-24T00:15:32.754Z,-4.30
2019-01-24T00:18:03.511Z,-4.20
2019-01-24T00:20:34.046Z,-4.20
2019-01-24T00:23:04.551Z,-4.10
2019-01-24T00:25:35.098Z,-4.10
2019-01-24T00:28:05.649Z,-4.20
2019-01-24T00:30:36.175Z,-4.10
2019-01-24T00:33:06.739Z,-4.20
2019-01-24T00:35:37.546Z,-4.20
2019-01-24T00:38:08.120Z,-4.20
2019-01-24T00:40:38.620Z,-4.20
2019-01-24T00:43:09.178Z,-4.20
2019-01-24T00:45:39.727Z,-4.20
2019-01-24T00:48:11.665Z,-4.30
2019-01-24T00:50:42.449Z,-4.20
2019-01-24T00:53:12.976Z,-4.30
2019-01-24T00:55:43.611Z,-4.30
2019-01-24T00:58:14.133Z,-4.40
2019-01-24T01:00:44.769Z,-4.30
2019-01-24T01:03:15.615Z,-4.30
2019-01-24T01:05:46.172Z,-4.20
2019-01-24T01:08:16.696Z,-4.20
2019-01-24T01:10:47.503Z,-4.20
2019-01-24T01:13:18.068Z,-4.20
2019-01-24T01:15:48.797Z,-4.20
2019-01-24T01:18:19.650Z,-4.20
2019-01-24T01:20:50.318Z,-4.10
2019-01-24T01:23:20.838Z,-4.20
2019-01-24T01:25:51.678Z,-4.20
2019-01-24T01:28:22.230Z,-4.20
2019-01-24T01:30:52.811Z,-4.30
2019-01-24T01:33:23.584Z,-4.30
2019-01-24T01:35:54.112Z,-4.30
2019-01-24T01:38:24.644Z,-4.20
2019-01-24T01:40:55.188Z,-4.20
2019-01-24T01:43:25.999Z,-4.30
2019-01-24T01:45:56.911Z,-4.30
2019-01-24T01:48:27.725Z,-4.20
2019-01-24T01:50:58.226Z,-4.30
2019-01-24T01:53:28.845Z,-4.30
2019-01-24T01:55:59.721Z,-4.30
2019-01-24T01:58:30.203Z,-4.40
2019-01-24T02:01:00.923Z,-4.40
2019-01-24T02:03:31.700Z,-4.40
2019-01-24T02:06:02.253Z,-4.40
2019-01-24T02:08:32.747Z,-4.40
2019-01-24T02:11:03.306Z,-4.40
2019-01-24T02:13:33.824Z,-4.40
2019-01-24T02:16:04.425Z,-4.40
2019-01-24T02:18:35.020Z,-4.40
2019-01-24T02:21:06.196Z,-4.40
2019-01-24T02:23:36.722Z,-4.40
2019-01-24T02:26:07.366Z,-4.40
2019-01-24T02:28:37.901Z,-4.40
2019-01-24T02:31:08.404Z,-4.40
2019-01-24T02:33:38.997Z,-4.40
2019-01-24T02:36:09.749Z,-4.40
2019-01-24T02:38:40.238Z,-4.40
2019-01-24T02:41:12.113Z,-4.40
2019-01-24T02:43:42.727Z,-4.40
2019-01-24T02:46:13.537Z,-4.30
2019-01-24T02:48:44.011Z,-4.30
2019-01-24T02:51:14.823Z,-4.30
2019-01-24T02:53:45.347Z,-4.20
2019-01-24T02:56:15.981Z,-4.30
2019-01-24T02:58:46.867Z,-4.40
2019-01-24T03:01:17.707Z,-4.30
2019-01-24T03:03:48.243Z,-4.30
2019-01-24T03:06:19.121Z,-4.30
2019-01-24T03:08:49.811Z,-4.30
2019-01-24T03:11:20.368Z,-4.30
2019-01-24T03:13:50.929Z,-4.40
2019-01-24T03:16:22.014Z,-4.40
2019-01-24T03:18:52.552Z,-4.30
2019-01-24T03:21:23.260Z,-4.40
2019-01-24T03:23:53.818Z,-4.40
2019-01-24T03:26:24.316Z,-4.40
2019-01-24T03:28:54.857Z,-4.50
2019-01-24T03:31:25.365Z,-4.30
2019-01-24T03:33:56.205Z,-4.20
2019-01-24T03:36:27.030Z,-4.30
2019-01-24T03:38:57.899Z,-4.40
2019-01-24T03:41:28.391Z,-4.50
2019-01-24T03:43:58.898Z,-4.50
2019-01-24T03:46:29.409Z,-4.50
2019-01-24T03:49:00.038Z,-4.50
2019-01-24T03:51:30.887Z,-4.50
2019-01-24T03:54:01.375Z,-4.60
2019-01-24T03:56:31.903Z,-4.60
2019-01-24T03:59:02.434Z,-4.60
2019-01-24T04:01:32.972Z,-4.60
2019-01-24T04:04:03.499Z,-4.70
2019-01-24T04:06:34.145Z,-4.80
2019-01-24T04:09:09.056Z,-4.90
2019-01-24T04:11:42.603Z,-4.90
2019-01-24T04:14:13.132Z,-5.10
2019-01-24T04:16:43.928Z,-5.20
2019-01-24T04:19:14.426Z,-5.30
2019-01-24T04:21:45.150Z,-5.30
2019-01-24T04:24:15.992Z,-5.30
2019-01-24T04:26:46.510Z,-5.30
2019-01-24T04:29:17.036Z,-5.20
2019-01-24T04:31:47.530Z,-5.20
2019-01-24T04:34:18.262Z,-5.10
2019-01-24T04:36:49.034Z,-5.10
2019-01-24T04:39:19.619Z,-5.10
2019-01-24T04:41:50.104Z,-5.00
2019-01-24T04:44:20.609Z,-4.90
2019-01-24T04:46:51.150Z,-4.80
2019-01-24T04:49:22.303Z,-4.70
2019-01-24T04:51:53.195Z,-4.70
2019-01-24T04:54:24.003Z,-4.70
2019-01-24T04:56:54.556Z,-4.70
2019-01-24T04:59:25.088Z,-4.70
2019-01-24T05:01:55.601Z,-4.80
2019-01-24T05:04:26.372Z,-4.70
2019-01-24T05:06:57.197Z,-4.70
2019-01-24T05:09:27.981Z,-4.70
2019-01-24T05:11:58.514Z,-4.70
2019-01-24T05:14:29.319Z,-4.70
2019-01-24T05:17:00.212Z,-4.70
2019-01-24T05:19:31.072Z,-4.70
2019-01-24T05:22:01.573Z,-4.70
2019-01-24T05:24:32.291Z,-4.70
2019-01-24T05:27:03.090Z,-4.70
2019-01-24T05:29:33.574Z,-4.70
2019-01-24T05:32:04.333Z,-4.70
2019-01-24T05:34:35.160Z,-4.70
2019-01-24T05:37:05.696Z,-4.80
2019-01-24T05:39:36.235Z,-4.70
2019-01-24T05:42:07.045Z,-4.70
2019-01-24T05:44:37.537Z,-4.70
2019-01-24T05:47:08.143Z,-4.80
2019-01-24T05:49:38.655Z,-4.70
2019-01-24T05:52:09.299Z,-4.70
2019-01-24T05:54:39.806Z,-4.70
2019-01-24T05:57:10.386Z,-4.70
2019-01-24T05:59:41.117Z,-4.80
2019-01-24T06:02:12.479Z,-4.80
2019-01-24T06:04:43.204Z,-4.80
2019-01-24T06:07:14.010Z,-4.80
2019-01-24T06:09:44.547Z,-4.70
2019-01-24T06:12:15.435Z,-4.70
2019-01-24T06:14:46.165Z,-4.70
2019-01-24T06:17:16.744Z,-4.70
2019-01-24T06:19:47.277Z,-4.70
2019-01-24T06:22:18.398Z,-4.70
2019-01-24T06:24:48.943Z,-4.70
2019-01-24T06:27:19.591Z,-4.70
2019-01-24T06:29:50.224Z,-4.70
2019-01-24T06:32:20.807Z,-4.60
2019-01-24T06:34:51.397Z,-4.60
2019-01-24T06:37:21.989Z,-4.60
2019-01-24T06:39:52.587Z,-4.60
2019-01-24T06:42:23.398Z,-4.60
2019-01-24T06:44:54.434Z,-4.50
2019-01-24T06:47:25.243Z,-4.60
2019-01-24T06:49:55.950Z,-4.60
2019-01-24T06:52:26.576Z,-4.60
2019-01-24T06:54:57.409Z,-4.60
2019-01-24T06:57:28.188Z,-4.60
2019-01-24T06:59:58.674Z,-4.60
2019-01-24T07:02:29.275Z,-4.60
2019-01-24T07:04:59.767Z,-4.60
2019-01-24T07:07:30.303Z,-4.50
2019-01-24T07:10:00.822Z,-4.50
2019-01-24T07:12:31.886Z,-4.50
2019-01-24T07:15:02.397Z,-4.40
2019-01-24T07:17:33.243Z,-4.40
2019-01-24T07:20:05.199Z,-4.40
2019-01-24T07:22:35.690Z,-4.30
2019-01-24T07:25:10.373Z,-4.20
2019-01-24T07:27:40.982Z,-4.30
2019-01-24T07:30:14.863Z,-4.20
2019-01-24T07:32:45.384Z,-4.00
2019-01-24T07:35:17.063Z,-4.00
2019-01-24T07:37:47.610Z,-4.00
2019-01-24T07:40:19.370Z,-4.00
2019-01-24T07:42:52.425Z,-3.90
2019-01-24T07:45:32.456Z,-4.00
2019-01-24T07:48:03.048Z,-3.90
2019-01-24T07:50:33.601Z,-3.90
2019-01-24T07:53:06.318Z,-4.00
2019-01-24T07:55:36.991Z,-3.90
2019-01-24T07:58:08.470Z,-3.80
2019-01-24T08:00:40.307Z,-3.70
2019-01-24T08:03:10.939Z,-3.60
2019-01-24T08:05:41.451Z,-3.60
2019-01-24T08:08:12.801Z,-3.60
2019-01-24T08:10:44.007Z,-3.60
2019-01-24T08:13:14.785Z,-3.50
2019-01-24T08:15:45.791Z,-3.60
2019-01-24T08:18:16.680Z,-3.60
2019-01-24T08:20:47.514Z,-3.60
2019-01-24T08:23:18.099Z,-3.60
2019-01-24T08:25:48.771Z,-3.60
2019-01-24T08:28:19.773Z,-3.60
2019-01-24T08:30:50.644Z,-3.60
2019-01-24T08:33:21.464Z,-3.60
2019-01-24T08:35:51.998Z,-3.50
2019-01-24T08:38:22.535Z,-3.60
2019-01-24T08:40:53.048Z,-3.60
2019-01-24T08:43:23.824Z,-3.60
2019-01-24T08:45:54.607Z,-3.60
2019-01-24T08:48:25.176Z,-3.50
2019-01-24T08:50:55.787Z,-3.40
2019-01-24T08:53:26.561Z,-3.10
2019-01-24T08:55:57.115Z,-3.20
2019-01-24T08:58:27.809Z,-3.10
2019-01-24T09:00:58.668Z,-3.10
2019-01-24T09:03:29.510Z,-3.10
2019-01-24T09:06:00.109Z,-3.10
2019-01-24T09:08:30.657Z,-3.10
2019-01-24T09:11:01.492Z,-2.90
2019-01-24T09:13:32.111Z,-2.70
2019-01-24T09:16:02.706Z,-2.70
2019-01-24T09:18:33.253Z,-2.60
2019-01-24T09:21:03.877Z,-2.60
2019-01-24T09:23:34.601Z,-3.00
2019-01-24T09:26:05.467Z,-2.90
2019-01-24T09:28:35.985Z,-2.90
2019-01-24T09:31:06.773Z,-3.00
2019-01-24T09:33:37.584Z,-2.80
2019-01-24T09:36:08.399Z,-2.70
2019-01-24T09:38:38.946Z,-2.60
2019-01-24T09:41:09.640Z,-2.50
2019-01-24T09:43:40.416Z,-2.30
2019-01-24T09:46:12.110Z,-2.40
2019-01-24T09:48:42.762Z,-2.40
2019-01-24T09:51:13.586Z,-2.30
2019-01-24T09:53:44.103Z,-2.10
2019-01-24T09:56:14.624Z,-2.10
2019-01-24T09:58:45.191Z,-2.20
2019-01-24T10:01:15.995Z,-2.20
2019-01-24T10:03:46.822Z,-2.10
2019-01-24T10:06:17.663Z,-2.00
2019-01-24T10:08:48.195Z,-2.00
2019-01-24T10:11:23.477Z,-2.00
2019-01-24T10:13:51.238Z,-2.10
2019-01-24T10:16:22.062Z,-2.00
2019-01-24T10:18:52.890Z,-2.10
2019-01-24T10:21:23.747Z,-2.00
2019-01-24T10:23:54.298Z,-2.10
2019-01-24T10:26:24.800Z,-2.10
2019-01-24T10:28:55.624Z,-2.10
2019-01-24T10:31:26.199Z,-2.10
2019-01-24T10:33:56.856Z,-2.00
2019-01-24T10:36:27.649Z,-2.10
2019-01-24T10:38:58.239Z,-2.10
2019-01-24T10:41:28.787Z,-2.10
2019-01-24T10:43:59.343Z,-1.90
2019-01-24T10:46:30.082Z,-1.80
2019-01-24T10:49:01.030Z,-1.80
2019-01-24T10:51:31.895Z,-1.80
2019-01-24T10:54:02.709Z,-1.90
2019-01-24T10:56:33.248Z,-1.80
2019-01-24T10:59:03.880Z,-1.80
2019-01-24T11:01:34.736Z,-1.60
2019-01-24T11:04:05.380Z,-1.50
2019-01-24T11:06:35.928Z,-1.30
2019-01-24T11:09:09.953Z,-1.10
2019-01-24T11:11:40.911Z,-1.10
2019-01-24T11:14:13.099Z,-0.90
2019-01-24T11:16:43.855Z,-1.00
2019-01-24T11:19:15.013Z,-0.90
2019-01-24T11:21:45.577Z,-1.00
2019-01-24T11:24:16.273Z,-1.00
2019-01-24T11:26:46.870Z,-1.60
2019-01-24T11:29:17.419Z,-1.90
2019-01-24T11:31:48.103Z,-2.00
2019-01-24T11:34:19.126Z,-2.30
2019-01-24T11:36:49.927Z,-2.20
2019-01-24T11:39:20.767Z,-2.30
2019-01-24T11:41:51.289Z,-2.10
2019-01-24T11:44:21.797Z,-1.90
2019-01-24T11:46:52.346Z,-1.90
2019-01-24T11:49:23.127Z,-1.90
2019-01-24T11:51:53.989Z,-1.70
2019-01-24T11:54:24.866Z,-1.70
2019-01-24T11:56:55.417Z,-1.70
2019-01-24T11:59:25.946Z,-1.80
2019-01-24T12:01:56.842Z,-2.00
2019-01-24T12:04:27.662Z,-2.20
2019-01-24T12:07:04.112Z,-2.20
2019-01-24T12:09:30.441Z,-2.00
2019-01-24T12:12:00.969Z,-2.00
2019-01-24T12:14:31.543Z,-2.00
2019-01-24T12:17:02.234Z,-2.00
2019-01-24T12:19:33.171Z,-2.20
2019-01-24T12:22:04.103Z,-2.00
2019-01-24T12:24:34.655Z,-2.10
2019-01-24T12:27:05.189Z,-2.10
2019-01-24T12:29:35.944Z,-1.90
2019-01-24T12:32:06.452Z,-1.70
2019-01-24T12:34:37.039Z,-1.60
2019-01-24T12:37:11.345Z,-1.60
2019-01-24T12:39:40.127Z,-1.30
2019-01-24T12:42:11.028Z,-1.40
2019-01-24T12:44:41.860Z,-1.20
2019-01-24T12:47:13.331Z,-1.20
2019-01-24T12:49:44.015Z,-1.20
2019-01-24T12:52:14.842Z,-1.20
2019-01-24T12:54:45.370Z,-1.40
2019-01-24T12:57:16.204Z,-1.30
2019-01-24T12:59:46.999Z,-1.10
2019-01-24T13:02:17.582Z,-1.20
2019-01-24T13:04:48.115Z,-1.30
2019-01-24T13:07:19.283Z,-1.40
2019-01-24T13:09:50.116Z,-1.40
2019-01-24T13:12:20.943Z,-1.30
2019-01-24T13:14:51.473Z,-1.30
2019-01-24T13:17:21.975Z,-1.30
2019-01-24T13:19:52.518Z,-1.20
2019-01-24T13:22:23.893Z,-1.00
2019-01-24T13:24:54.438Z,-1.10
2019-01-24T13:27:25.312Z,-1.10
2019-01-24T13:29:56.039Z,-1.20
2019-01-24T13:32:26.687Z,-1.50
2019-01-24T13:34:57.246Z,-1.50
2019-01-24T13:37:27.835Z,-1.50
2019-01-24T13:39:58.409Z,-1.30
2019-01-24T13:42:29.232Z,-1.20
2019-01-24T13:45:00.194Z,-1.10
2019-01-24T13:47:31.149Z,-1.20
2019-01-24T13:50:02.009Z,-1.20
2019-01-24T13:52:32.563Z,-1.10
2019-01-24T13:55:03.289Z,-1.20
2019-01-24T13:57:34.131Z,-1.30
2019-01-24T14:00:07.632Z,-1.30
2019-01-24T14:02:39.071Z,-1.40
2019-01-24T14:05:12.114Z,-1.30
2019-01-24T14:07:42.687Z,-1.20
2019-01-24T14:10:15.120Z,-1.20
2019-01-24T14:12:45.619Z,-1.20
2019-01-24T14:15:17.460Z,-1.20
2019-01-24T14:17:48.159Z,-1.40
2019-01-24T14:20:19.842Z,-1.50
2019-01-24T14:22:50.544Z,-1.50
2019-01-24T14:25:21.619Z,-1.50
2019-01-24T14:27:52.373Z,-1.50
2019-01-24T14:30:26.779Z,-1.60
2019-01-24T14:32:57.539Z,-1.60
2019-01-24T14:35:28.151Z,-1.70
2019-01-24T14:37:59.003Z,-1.70
2019-01-24T14:40:29.644Z,-1.80
2019-01-24T14:43:00.472Z,-2.00
2019-01-24T14:45:31.392Z,-2.10
2019-01-24T14:48:02.171Z,-2.10
2019-01-24T14:50:32.796Z,-2.10
2019-01-24T14:53:03.437Z,-2.00
2019-01-24T14:55:34.282Z,-2.00
2019-01-24T14:58:05.906Z,-1.90
2019-01-24T15:00:51.187Z,-2.00
2019-01-24T15:03:21.763Z,-2.00
2019-01-24T15:05:52.348Z,-2.00
2019-01-24T15:08:23.230Z,-2.00
2019-01-24T15:10:53.825Z,-2.10
2019-01-24T15:13:24.733Z,-2.20
2019-01-24T15:15:55.458Z,-2.20
2019-01-24T15:18:26.486Z,-2.30
2019-01-24T15:20:57.299Z,-2.30
2019-01-24T15:23:28.390Z,-2.30
2019-01-24T15:25:59.197Z,-2.30
2019-01-24T15:28:29.751Z,-2.30
2019-01-24T15:31:00.462Z,-2.30
2019-01-24T15:33:31.360Z,-2.30
2019-01-24T15:36:01.954Z,-2.30
2019-01-24T15:38:32.537Z,-2.30
2019-01-24T15:41:03.320Z,-2.30
2019-01-24T15:43:33.909Z,-2.40
2019-01-24T15:46:04.716Z,-2.40
2019-01-24T15:48:42.263Z,-2.40
2019-01-24T15:51:07.822Z,-2.40
2019-01-24T15:53:38.472Z,-2.40
2019-01-24T15:56:09.307Z,-2.40
2019-01-24T15:58:39.910Z,-2.40
2019-01-24T16:01:10.586Z,-2.50
2019-01-24T16:03:41.505Z,-2.60
2019-01-24T16:06:13.546Z,-2.50
2019-01-24T16:08:44.394Z,-2.60
2019-01-24T16:11:15.005Z,-2.60
2019-01-24T16:13:45.722Z,-2.60
2019-01-24T16:16:16.552Z,-2.60
2019-01-24T16:18:47.132Z,-2.60
2019-01-24T16:21:17.782Z,-2.60
2019-01-24T16:23:48.416Z,-2.60
2019-01-24T16:26:19.005Z,-2.60
2019-01-24T16:28:49.595Z,-2.60
2019-01-24T16:31:20.141Z,-2.60
2019-01-24T16:33:50.774Z,-2.70
2019-01-24T16:36:21.786Z,-2.70
2019-01-24T16:38:52.430Z,-2.80
2019-01-24T16:41:23.014Z,-2.70
2019-01-24T16:43:53.587Z,-2.80
2019-01-24T16:46:24.213Z,-2.80
2019-01-24T16:48:54.901Z,-2.80
2019-01-24T16:51:25.799Z,-2.80
2019-01-24T16:53:56.552Z,-2.90
2019-01-24T16:56:27.463Z,-2.90
2019-01-24T16:58:58.155Z,-2.90
2019-01-24T17:01:28.807Z,-2.90
2019-01-24T17:03:59.832Z,-2.80
2019-01-24T17:06:30.934Z,-2.80
2019-01-24T17:09:01.812Z,-2.80
2019-01-24T17:11:32.476Z,-2.90
2019-01-24T17:14:04.119Z,-2.90
2019-01-24T17:16:34.770Z,-2.80
2019-01-24T17:19:05.884Z,-2.90
2019-01-24T17:21:36.718Z,-2.90
2019-01-24T17:24:07.650Z,-2.90
2019-01-24T17:26:38.493Z,-2.90
2019-01-24T17:29:09.062Z,-2.90
2019-01-24T17:31:40.007Z,-2.90
2019-01-24T17:34:10.910Z,-2.90
2019-01-24T17:36:41.977Z,-2.90
2019-01-24T17:39:14.304Z,-2.90
2019-01-24T17:41:46.472Z,-2.90
2019-01-24T17:44:17.069Z,-2.90
2019-01-24T17:46:47.667Z,-2.90
2019-01-24T17:49:20.026Z,-3.00
2019-01-24T17:51:50.729Z,-3.00
2019-01-24T17:54:21.582Z,-3.00
2019-01-24T17:56:52.234Z,-3.10
2019-01-24T17:59:22.776Z,-3.00
2019-01-24T18:01:53.720Z,-3.00
2019-01-24T18:04:24.265Z,-3.00
2019-01-24T18:06:54.900Z,-3.00
2019-01-24T18:09:25.771Z,-3.00
2019-01-24T18:11:56.573Z,-3.00
2019-01-24T18:14:27.118Z,-2.90
2019-01-24T18:16:57.714Z,-3.00
2019-01-24T18:19:28.910Z,-2.90
2019-01-24T18:21:59.838Z,-3.00
2019-01-24T18:24:30.783Z,-3.10
2019-01-24T18:27:01.399Z,-3.00
2019-01-24T18:29:31.984Z,-3.00
2019-01-24T18:34:40.638Z,-3.10
2019-01-24T18:37:11.288Z,-3.10
2019-01-24T18:39:41.957Z,-3.00
2019-01-24T18:42:14.402Z,-3.10
2019-01-24T18:44:45.109Z,-3.00
2019-01-24T18:47:15.691Z,-3.00
2019-01-24T18:49:46.347Z,-3.00
2019-01-24T18:52:17.253Z,-3.00
2019-01-24T18:54:47.898Z,-3.10
2019-01-24T18:57:18.961Z,-3.10
2019-01-24T18:59:49.753Z,-3.10
2019-01-24T19:02:20.335Z,-3.10
2019-01-24T19:04:51.098Z,-3.10
2019-01-24T19:07:22.139Z,-3.10
2019-01-24T19:09:53.066Z,-3.10
2019-01-24T19:12:23.925Z,-3.10
2019-01-24T19:14:54.849Z,-3.20
2019-01-24T19:17:26.120Z,-3.20
2019-01-24T19:19:56.749Z,-3.20
2019-01-24T19:22:27.411Z,-3.20
2019-01-24T19:24:57.983Z,-3.30
2019-01-24T19:27:28.895Z,-3.30
2019-01-24T19:29:59.946Z,-3.30
2019-01-24T19:32:30.797Z,-3.30
2019-01-24T19:35:01.630Z,-3.20
2019-01-24T19:37:32.155Z,-3.20
2019-01-24T19:40:03.015Z,-3.30
2019-01-24T19:42:36.057Z,-3.30
2019-01-24T19:45:11.567Z,-3.30
2019-01-24T19:47:42.164Z,-3.20
2019-01-24T19:50:17.774Z,-3.20
2019-01-24T19:52:48.485Z,-3.30
2019-01-24T19:55:19.615Z,-3.30
2019-01-24T19:57:54.668Z,-3.30
2019-01-24T20:00:28.409Z,-3.30
2019-01-24T20:02:59.182Z,-3.40
2019-01-24T20:05:30.185Z,-3.40
2019-01-24T20:08:01.094Z,-3.40
2019-01-24T20:10:32.372Z,-3.40
2019-01-24T20:13:03.269Z,-3.50
2019-01-24T20:15:34.053Z,-3.50
2019-01-24T20:18:06.611Z,-3.60
2019-01-24T20:20:37.711Z,-3.60
2019-01-24T20:23:08.575Z,-3.50
2019-01-24T20:25:39.142Z,-3.50
2019-01-24T20:28:10.012Z,-3.50
2019-01-24T20:30:40.876Z,-3.60
2019-01-24T20:33:11.488Z,-3.50
2019-01-24T20:36:01.260Z,-3.60
2019-01-24T20:38:31.882Z,-3.60
2019-01-24T20:41:02.641Z,-3.50
2019-01-24T20:43:35.602Z,-3.50
2019-01-24T20:46:05.975Z,-3.50
2019-01-24T20:48:36.772Z,-3.40
2019-01-24T20:51:07.419Z,-3.40
2019-01-24T20:53:37.987Z,-3.50
2019-01-24T20:56:08.956Z,-3.40
2019-01-24T20:58:39.862Z,-3.50
2019-01-24T21:01:10.486Z,-3.50
2019-01-24T21:03:41.205Z,-3.50
2019-01-24T21:06:12.103Z,-3.60
2019-01-24T21:08:43.475Z,-3.60
2019-01-24T21:11:14.468Z,-3.70
2019-01-24T21:13:45.124Z,-3.70
2019-01-24T21:16:16.214Z,-3.70
2019-01-24T21:18:47.061Z,-3.70
2019-01-24T21:21:18.100Z,-3.70
2019-01-24T21:23:49.067Z,-3.70
2019-01-24T21:26:19.913Z,-3.70
2019-01-24T21:28:50.567Z,-3.60
2019-01-24T21:31:21.446Z,-3.60
2019-01-24T21:33:52.269Z,-3.70
2019-01-24T21:36:23.151Z,-3.70
2019-01-24T21:38:54.042Z,-3.70
2019-01-24T21:41:24.911Z,-3.70
2019-01-24T21:43:55.550Z,-3.70
2019-01-24T21:46:26.280Z,-3.70
2019-01-24T21:48:57.083Z,-3.70
2019-01-24T21:51:27.931Z,-3.70
2019-01-24T21:53:58.560Z,-3.70
2019-01-24T21:56:29.151Z,-3.70
2019-01-24T21:59:00.026Z,-3.60
2019-01-24T22:01:31.248Z,-3.60
2019-01-24T22:04:07.444Z,-3.60
2019-01-24T22:06:38.116Z,-3.60
2019-01-24T22:09:10.592Z,-3.60
2019-01-24T22:11:41.228Z,-3.60
2019-01-24T22:14:11.954Z,-3.60
2019-01-24T22:16:42.676Z,-3.60
2019-01-24T22:19:14.411Z,-3.70
2019-01-24T22:21:45.284Z,-3.70
2019-01-24T22:24:16.155Z,-3.70
2019-01-24T22:26:47.026Z,-3.70
2019-01-24T22:29:17.692Z,-3.70
2019-01-24T22:31:48.318Z,-3.70
2019-01-24T22:34:19.173Z,-3.60
2019-01-24T22:36:49.746Z,-3.70
2019-01-24T22:39:20.433Z,-3.70
2019-01-24T22:41:51.120Z,-3.70
2019-01-24T22:44:21.977Z,-3.70
2019-01-24T22:46:52.566Z,-3.70
2019-01-24T22:49:23.323Z,-3.60
2019-01-24T22:51:54.227Z,-3.60
2019-01-24T22:54:25.112Z,-3.60
2019-01-24T22:56:55.917Z,-3.80
2019-01-24T22:59:26.521Z,-3.80
2019-01-24T23:02:10.514Z,-3.90
2019-01-24T23:04:41.024Z,-3.90
2019-01-24T23:07:11.597Z,-3.90
2019-01-24T23:09:44.175Z,-3.90
2019-01-24T23:12:14.576Z,-3.90
2019-01-24T23:14:45.194Z,-3.90
2019-01-24T23:17:16.036Z,-3.90
2019-01-24T23:19:46.547Z,-3.90
2019-01-24T23:22:17.353Z,-3.80
2019-01-24T23:24:48.202Z,-3.80
2019-01-24T23:27:19.045Z,-3.90
2019-01-24T23:29:49.633Z,-3.90
2019-01-24T23:32:20.164Z,-3.80
2019-01-24T23:34:50.964Z,-3.80
2019-01-24T23:37:21.458Z,-3.80
2019-01-24T23:39:53.589Z,-3.80
2019-01-24T23:42:24.480Z,-3.90
2019-01-24T23:44:55.155Z,-3.90
2019-01-24T23:47:25.684Z,-3.80
2019-01-24T23:49:56.284Z,-3.80
2019-01-24T23:52:27.389Z,-3.90
2019-01-24T23:54:58.215Z,-3.90
2019-01-24T23:57:28.793Z,-3.80
2019-01-24T23:59:59.349Z,-3.90
